sensor_id;sensor_type;location;lat;lon;timestamp;P1;durP1;ratioP1;P2;durP2;ratioP2
16294;SDS011;8255;49.560;8.244;2023-02-19T00:01:26;4.70;;;4.35;;
16294;SDS011;8255;49.560;8.244;2023-02-19T00:03:54;4.35;;;4.15;;
16294;SDS011;8255;49.560;8.244;2023-02-19T00:06:21;4.30;;;4.00;;
16294;SDS011;8255;49.560;8.244;2023-02-19T00:08:48;4.38;;;4.03;;
16294;SDS011;8255;49.560;8.244;2023-02-19T00:11:15;4.35;;;4.05;;
16294;SDS011;8255;49.560;8.244;2023-02-19T00:13:42;4.18;;;3.90;;
16294;SDS011;8255;49.560;8.244;2023-02-19T00:16:10;4.63;;;4.25;;
16294;SDS011;8255;49.560;8.244;2023-02-19T00:18:37;5.32;;;4.97;;
16294;SDS011;8255;49.560;8.244;2023-02-19T00:21:05;4.90;;;4.50;;
16294;SDS011;8255;49.560;8.244;2023-02-19T00:23:31;11.02;;;5.22;;
16294;SDS011;8255;49.560;8.244;2023-02-19T00:26:00;4.65;;;4.30;;
16294;SDS011;8255;49.560;8.244;2023-02-19T00:28:26;4.43;;;4.15;;
16294;SDS011;8255;49.560;8.244;2023-02-19T00:30:53;4.78;;;4.38;;
16294;SDS011;8255;49.560;8.244;2023-02-19T00:33:19;4.60;;;4.20;;
16294;SDS011;8255;49.560;8.244;2023-02-19T00:35:45;4.28;;;3.97;;
16294;SDS011;8255;49.560;8.244;2023-02-19T00:38:13;4.57;;;4.28;;
16294;SDS011;8255;49.560;8.244;2023-02-19T00:40:40;4.40;;;4.05;;
16294;SDS011;8255;49.560;8.244;2023-02-19T00:43:07;4.65;;;4.25;;
16294;SDS011;8255;49.560;8.244;2023-02-19T00:45:33;4.65;;;4.35;;
16294;SDS011;8255;49.560;8.244;2023-02-19T00:48:00;4.00;;;3.80;;
16294;SDS011;8255;49.560;8.244;2023-02-19T00:50:26;3.92;;;3.60;;
16294;SDS011;8255;49.560;8.244;2023-02-19T00:52:52;4.07;;;3.88;;
16294;SDS011;8255;49.560;8.244;2023-02-19T00:55:20;3.90;;;3.70;;
16294;SDS011;8255;49.560;8.244;2023-02-19T00:57:46;4.50;;;4.18;;
16294;SDS011;8255;49.560;8.244;2023-02-19T01:00:13;4.40;;;4.10;;
16294;SDS011;8255;49.560;8.244;2023-02-19T01:02:39;4.25;;;3.85;;
16294;SDS011;8255;49.560;8.244;2023-02-19T01:05:06;4.10;;;3.90;;
16294;SDS011;8255;49.560;8.244;2023-02-19T01:07:33;4.50;;;4.10;;
16294;SDS011;8255;49.560;8.244;2023-02-19T01:10:00;4.32;;;4.05;;
16294;SDS011;8255;49.560;8.244;2023-02-19T01:12:28;4.90;;;4.50;;
16294;SDS011;8255;49.560;8.244;2023-02-19T01:14:55;4.63;;;4.20;;
16294;SDS011;8255;49.560;8.244;2023-02-19T01:17:21;4.30;;;3.90;;
16294;SDS011;8255;49.560;8.244;2023-02-19T01:19:48;4.30;;;4.00;;
16294;SDS011;8255;49.560;8.244;2023-02-19T01:22:14;4.72;;;4.32;;
16294;SDS011;8255;49.560;8.244;2023-02-19T01:24:40;4.68;;;4.38;;
16294;SDS011;8255;49.560;8.244;2023-02-19T01:27:07;7.63;;;4.30;;
16294;SDS011;8255;49.560;8.244;2023-02-19T01:29:34;4.82;;;4.50;;
16294;SDS011;8255;49.560;8.244;2023-02-19T01:32:01;5.32;;;4.93;;
16294;SDS011;8255;49.560;8.244;2023-02-19T01:34:27;4.90;;;4.60;;
16294;SDS011;8255;49.560;8.244;2023-02-19T01:36:57;4.72;;;4.30;;
16294;SDS011;8255;49.560;8.244;2023-02-19T01:39:24;4.90;;;4.60;;
16294;SDS011;8255;49.560;8.244;2023-02-19T01:41:50;4.60;;;4.20;;
16294;SDS011;8255;49.560;8.244;2023-02-19T01:47:03;4.65;;;4.35;;
16294;SDS011;8255;49.560;8.244;2023-02-19T01:49:30;3.92;;;3.70;;
16294;SDS011;8255;49.560;8.244;2023-02-19T01:51:58;4.00;;;3.70;;
16294;SDS011;8255;49.560;8.244;2023-02-19T01:54:25;3.83;;;3.63;;
16294;SDS011;8255;49.560;8.244;2023-02-19T01:56:53;4.18;;;3.88;;
16294;SDS011;8255;49.560;8.244;2023-02-19T01:59:20;4.45;;;4.10;;
16294;SDS011;8255;49.560;8.244;2023-02-19T02:01:47;3.38;;;3.17;;
16294;SDS011;8255;49.560;8.244;2023-02-19T02:04:15;3.58;;;3.38;;
16294;SDS011;8255;49.560;8.244;2023-02-19T02:06:43;3.70;;;3.50;;
16294;SDS011;8255;49.560;8.244;2023-02-19T02:09:11;4.03;;;3.63;;
16294;SDS011;8255;49.560;8.244;2023-02-19T02:11:56;4.03;;;3.72;;
16294;SDS011;8255;49.560;8.244;2023-02-19T02:14:23;5.93;;;4.13;;
16294;SDS011;8255;49.560;8.244;2023-02-19T02:16:53;4.03;;;3.80;;
16294;SDS011;8255;49.560;8.244;2023-02-19T02:19:28;3.88;;;3.58;;
16294;SDS011;8255;49.560;8.244;2023-02-19T02:22:00;4.13;;;3.70;;
16294;SDS011;8255;49.560;8.244;2023-02-19T02:27:16;4.05;;;3.85;;
16294;SDS011;8255;49.560;8.244;2023-02-19T02:30:00;3.80;;;3.53;;
16294;SDS011;8255;49.560;8.244;2023-02-19T02:32:30;4.00;;;3.80;;
16294;SDS011;8255;49.560;8.244;2023-02-19T02:34:58;4.55;;;4.25;;
16294;SDS011;8255;49.560;8.244;2023-02-19T02:37:27;4.43;;;4.13;;
16294;SDS011;8255;49.560;8.244;2023-02-19T02:39:56;5.80;;;5.32;;
16294;SDS011;8255;49.560;8.244;2023-02-19T02:42:23;5.25;;;4.75;;
16294;SDS011;8255;49.560;8.244;2023-02-19T02:45:26;4.85;;;4.45;;
16294;SDS011;8255;49.560;8.244;2023-02-19T02:48:28;4.40;;;4.20;;
16294;SDS011;8255;49.560;8.244;2023-02-19T02:50:58;4.53;;;4.22;;
16294;SDS011;8255;49.560;8.244;2023-02-19T02:53:28;5.00;;;4.60;;
16294;SDS011;8255;49.560;8.244;2023-02-19T02:56:28;4.53;;;4.22;;
16294;SDS011;8255;49.560;8.244;2023-02-19T02:58:55;4.53;;;4.30;;
16294;SDS011;8255;49.560;8.244;2023-02-19T03:01:24;4.93;;;4.60;;
16294;SDS011;8255;49.560;8.244;2023-02-19T03:04:09;4.35;;;4.15;;
16294;SDS011;8255;49.560;8.244;2023-02-19T03:06:37;4.13;;;3.85;;
16294;SDS011;8255;49.560;8.244;2023-02-19T03:09:06;5.88;;;5.25;;
16294;SDS011;8255;49.560;8.244;2023-02-19T03:11:34;5.30;;;5.00;;
16294;SDS011;8255;49.560;8.244;2023-02-19T03:14:20;5.38;;;4.70;;
16294;SDS011;8255;49.560;8.244;2023-02-19T03:17:07;4.70;;;4.40;;
16294;SDS011;8255;49.560;8.244;2023-02-19T03:19:55;5.40;;;4.90;;
16294;SDS011;8255;49.560;8.244;2023-02-19T03:22:21;5.72;;;5.10;;
16294;SDS011;8255;49.560;8.244;2023-02-19T03:24:49;5.13;;;4.82;;
16294;SDS011;8255;49.560;8.244;2023-02-19T03:27:40;5.47;;;4.97;;
16294;SDS011;8255;49.560;8.244;2023-02-19T03:30:08;5.45;;;5.05;;
16294;SDS011;8255;49.560;8.244;2023-02-19T03:32:38;5.80;;;5.30;;
16294;SDS011;8255;49.560;8.244;2023-02-19T03:35:05;6.05;;;5.53;;
16294;SDS011;8255;49.560;8.244;2023-02-19T03:37:35;5.93;;;5.43;;
16294;SDS011;8255;49.560;8.244;2023-02-19T03:40:04;5.60;;;5.20;;
16294;SDS011;8255;49.560;8.244;2023-02-19T03:42:34;6.55;;;6.05;;
16294;SDS011;8255;49.560;8.244;2023-02-19T03:45:08;5.75;;;5.35;;
16294;SDS011;8255;49.560;8.244;2023-02-19T03:47:39;6.40;;;5.90;;
16294;SDS011;8255;49.560;8.244;2023-02-19T03:50:10;6.63;;;6.05;;
16294;SDS011;8255;49.560;8.244;2023-02-19T03:52:40;6.00;;;5.50;;
16294;SDS011;8255;49.560;8.244;2023-02-19T03:55:09;5.72;;;5.30;;
16294;SDS011;8255;49.560;8.244;2023-02-19T03:57:38;5.38;;;4.88;;
16294;SDS011;8255;49.560;8.244;2023-02-19T04:00:09;5.50;;;5.10;;
16294;SDS011;8255;49.560;8.244;2023-02-19T04:02:40;5.53;;;5.13;;
16294;SDS011;8255;49.560;8.244;2023-02-19T04:05:09;5.95;;;5.45;;
16294;SDS011;8255;49.560;8.244;2023-02-19T04:07:38;5.15;;;4.80;;
16294;SDS011;8255;49.560;8.244;2023-02-19T04:10:07;5.93;;;5.53;;
16294;SDS011;8255;49.560;8.244;2023-02-19T04:12:39;6.22;;;5.72;;
16294;SDS011;8255;49.560;8.244;2023-02-19T04:15:07;5.13;;;4.63;;
16294;SDS011;8255;49.560;8.244;2023-02-19T04:17:36;5.88;;;5.38;;
16294;SDS011;8255;49.560;8.244;2023-02-19T04:20:06;5.57;;;5.18;;
16294;SDS011;8255;49.560;8.244;2023-02-19T04:22:33;6.47;;;5.88;;
16294;SDS011;8255;49.560;8.244;2023-02-19T04:25:00;6.22;;;5.63;;
16294;SDS011;8255;49.560;8.244;2023-02-19T04:27:27;5.68;;;5.28;;
16294;SDS011;8255;49.560;8.244;2023-02-19T04:29:53;6.10;;;5.60;;
16294;SDS011;8255;49.560;8.244;2023-02-19T04:32:19;5.53;;;5.13;;
16294;SDS011;8255;49.560;8.244;2023-02-19T04:34:46;5.38;;;4.88;;
16294;SDS011;8255;49.560;8.244;2023-02-19T04:37:13;5.22;;;4.82;;
16294;SDS011;8255;49.560;8.244;2023-02-19T04:39:40;5.00;;;4.60;;
16294;SDS011;8255;49.560;8.244;2023-02-19T04:42:06;5.70;;;5.25;;
16294;SDS011;8255;49.560;8.244;2023-02-19T04:44:32;4.70;;;4.40;;
16294;SDS011;8255;49.560;8.244;2023-02-19T04:46:59;4.40;;;4.10;;
16294;SDS011;8255;49.560;8.244;2023-02-19T04:49:25;4.82;;;4.43;;
16294;SDS011;8255;49.560;8.244;2023-02-19T04:51:52;3.88;;;3.67;;
16294;SDS011;8255;49.560;8.244;2023-02-19T04:54:20;4.47;;;4.15;;
16294;SDS011;8255;49.560;8.244;2023-02-19T04:56:46;3.92;;;3.72;;
16294;SDS011;8255;49.560;8.244;2023-02-19T04:59:14;4.28;;;4.07;;
16294;SDS011;8255;49.560;8.244;2023-02-19T05:01:41;3.50;;;3.30;;
16294;SDS011;8255;49.560;8.244;2023-02-19T05:04:08;3.50;;;3.28;;
16294;SDS011;8255;49.560;8.244;2023-02-19T05:06:34;3.92;;;3.72;;
16294;SDS011;8255;49.560;8.244;2023-02-19T05:09:00;3.42;;;3.30;;
16294;SDS011;8255;49.560;8.244;2023-02-19T05:11:28;4.22;;;3.95;;
16294;SDS011;8255;49.560;8.244;2023-02-19T05:13:55;4.07;;;3.88;;
16294;SDS011;8255;49.560;8.244;2023-02-19T05:16:21;4.18;;;3.85;;
16294;SDS011;8255;49.560;8.244;2023-02-19T05:18:47;4.38;;;3.95;;
16294;SDS011;8255;49.560;8.244;2023-02-19T05:21:14;5.00;;;4.70;;
16294;SDS011;8255;49.560;8.244;2023-02-19T05:23:40;4.90;;;4.35;;
16294;SDS011;8255;49.560;8.244;2023-02-19T05:26:07;5.13;;;4.82;;
16294;SDS011;8255;49.560;8.244;2023-02-19T05:28:35;4.47;;;4.05;;
16294;SDS011;8255;49.560;8.244;2023-02-19T05:31:03;3.67;;;3.47;;
16294;SDS011;8255;49.560;8.244;2023-02-19T05:33:30;3.22;;;3.10;;
16294;SDS011;8255;49.560;8.244;2023-02-19T05:35:56;3.33;;;3.17;;
16294;SDS011;8255;49.560;8.244;2023-02-19T05:38:22;3.45;;;3.25;;
16294;SDS011;8255;49.560;8.244;2023-02-19T05:40:49;2.55;;;2.45;;
16294;SDS011;8255;49.560;8.244;2023-02-19T05:43:16;3.50;;;3.30;;
16294;SDS011;8255;49.560;8.244;2023-02-19T05:45:44;3.60;;;3.40;;
16294;SDS011;8255;49.560;8.244;2023-02-19T05:48:11;3.45;;;3.28;;
16294;SDS011;8255;49.560;8.244;2023-02-19T05:50:37;3.83;;;3.63;;
16294;SDS011;8255;49.560;8.244;2023-02-19T05:53:10;3.95;;;3.75;;
16294;SDS011;8255;49.560;8.244;2023-02-19T05:55:36;4.82;;;4.53;;
16294;SDS011;8255;49.560;8.244;2023-02-19T05:58:03;4.15;;;3.92;;
16294;SDS011;8255;49.560;8.244;2023-02-19T06:00:29;3.92;;;3.30;;
16294;SDS011;8255;49.560;8.244;2023-02-19T06:02:58;3.50;;;3.30;;
16294;SDS011;8255;49.560;8.244;2023-02-19T06:05:25;3.70;;;3.50;;
16294;SDS011;8255;49.560;8.244;2023-02-19T06:07:51;3.85;;;3.65;;
16294;SDS011;8255;49.560;8.244;2023-02-19T06:10:18;4.47;;;4.17;;
16294;SDS011;8255;49.560;8.244;2023-02-19T06:12:44;3.50;;;3.30;;
16294;SDS011;8255;49.560;8.244;2023-02-19T06:15:10;3.42;;;3.22;;
16294;SDS011;8255;49.560;8.244;2023-02-19T06:17:37;3.55;;;3.35;;
16294;SDS011;8255;49.560;8.244;2023-02-19T06:20:05;3.38;;;3.10;;
16294;SDS011;8255;49.560;8.244;2023-02-19T06:22:31;3.45;;;3.25;;
16294;SDS011;8255;49.560;8.244;2023-02-19T06:24:58;3.88;;;3.50;;
16294;SDS011;8255;49.560;8.244;2023-02-19T06:27:24;3.85;;;3.55;;
16294;SDS011;8255;49.560;8.244;2023-02-19T06:29:50;3.55;;;3.30;;
16294;SDS011;8255;49.560;8.244;2023-02-19T06:32:17;3.10;;;3.00;;
16294;SDS011;8255;49.560;8.244;2023-02-19T06:34:43;3.42;;;3.22;;
16294;SDS011;8255;49.560;8.244;2023-02-19T06:37:11;4.07;;;3.70;;
16294;SDS011;8255;49.560;8.244;2023-02-19T06:39:37;3.40;;;3.30;;
16294;SDS011;8255;49.560;8.244;2023-02-19T06:42:03;3.70;;;3.50;;
16294;SDS011;8255;49.560;8.244;2023-02-19T06:44:30;3.90;;;3.60;;
16294;SDS011;8255;49.560;8.244;2023-02-19T06:46:56;3.30;;;3.10;;
16294;SDS011;8255;49.560;8.244;2023-02-19T06:49:22;3.60;;;3.40;;
16294;SDS011;8255;49.560;8.244;2023-02-19T06:51:49;6.75;;;5.32;;
16294;SDS011;8255;49.560;8.244;2023-02-19T06:54:16;4.28;;;3.83;;
16294;SDS011;8255;49.560;8.244;2023-02-19T06:56:43;4.18;;;3.53;;
16294;SDS011;8255;49.560;8.244;2023-02-19T06:59:10;3.78;;;3.58;;
16294;SDS011;8255;49.560;8.244;2023-02-19T07:01:37;4.50;;;4.20;;
16294;SDS011;8255;49.560;8.244;2023-02-19T07:04:04;6.35;;;3.80;;
16294;SDS011;8255;49.560;8.244;2023-02-19T07:06:31;4.00;;;3.70;;
16294;SDS011;8255;49.560;8.244;2023-02-19T07:08:58;3.45;;;3.17;;
16294;SDS011;8255;49.560;8.244;2023-02-19T07:11:27;3.65;;;3.45;;
16294;SDS011;8255;49.560;8.244;2023-02-19T07:13:55;3.25;;;3.05;;
16294;SDS011;8255;49.560;8.244;2023-02-19T07:16:21;3.63;;;3.33;;
16294;SDS011;8255;49.560;8.244;2023-02-19T07:18:48;3.25;;;2.95;;
16294;SDS011;8255;49.560;8.244;2023-02-19T07:21:15;3.90;;;3.60;;
16294;SDS011;8255;49.560;8.244;2023-02-19T07:23:41;2.47;;;2.30;;
16294;SDS011;8255;49.560;8.244;2023-02-19T07:26:08;3.72;;;3.33;;
16294;SDS011;8255;49.560;8.244;2023-02-19T07:28:36;3.63;;;3.38;;
16294;SDS011;8255;49.560;8.244;2023-02-19T07:31:03;3.60;;;3.40;;
16294;SDS011;8255;49.560;8.244;2023-02-19T07:33:29;3.95;;;3.50;;
16294;SDS011;8255;49.560;8.244;2023-02-19T07:35:56;3.53;;;3.25;;
16294;SDS011;8255;49.560;8.244;2023-02-19T07:38:23;4.00;;;3.70;;
16294;SDS011;8255;49.560;8.244;2023-02-19T07:40:49;4.18;;;2.88;;
16294;SDS011;8255;49.560;8.244;2023-02-19T07:43:16;3.35;;;3.15;;
16294;SDS011;8255;49.560;8.244;2023-02-19T07:45:44;3.60;;;3.40;;
16294;SDS011;8255;49.560;8.244;2023-02-19T07:48:10;3.60;;;3.30;;
16294;SDS011;8255;49.560;8.244;2023-02-19T07:50:37;3.65;;;3.45;;
16294;SDS011;8255;49.560;8.244;2023-02-19T07:53:03;3.92;;;3.13;;
16294;SDS011;8255;49.560;8.244;2023-02-19T07:55:30;3.70;;;3.50;;
16294;SDS011;8255;49.560;8.244;2023-02-19T07:57:56;2.78;;;2.58;;
16294;SDS011;8255;49.560;8.244;2023-02-19T08:00:23;3.30;;;3.08;;
16294;SDS011;8255;49.560;8.244;2023-02-19T08:02:51;4.10;;;3.00;;
16294;SDS011;8255;49.560;8.244;2023-02-19T08:05:27;3.05;;;2.85;;
16294;SDS011;8255;49.560;8.244;2023-02-19T08:07:54;2.83;;;2.70;;
16294;SDS011;8255;49.560;8.244;2023-02-19T08:10:21;2.97;;;2.67;;
16294;SDS011;8255;49.560;8.244;2023-02-19T08:13:05;2.75;;;2.65;;
16294;SDS011;8255;49.560;8.244;2023-02-19T08:15:50;3.70;;;3.20;;
16294;SDS011;8255;49.560;8.244;2023-02-19T08:18:19;3.00;;;2.78;;
16294;SDS011;8255;49.560;8.244;2023-02-19T08:20:45;3.42;;;3.13;;
16294;SDS011;8255;49.560;8.244;2023-02-19T08:23:12;2.67;;;2.42;;
16294;SDS011;8255;49.560;8.244;2023-02-19T08:25:39;3.03;;;2.72;;
16294;SDS011;8255;49.560;8.244;2023-02-19T08:28:06;4.38;;;2.65;;
16294;SDS011;8255;49.560;8.244;2023-02-19T08:30:33;3.08;;;2.88;;
16294;SDS011;8255;49.560;8.244;2023-02-19T08:33:00;2.85;;;2.55;;
16294;SDS011;8255;49.560;8.244;2023-02-19T08:35:28;2.35;;;2.15;;
16294;SDS011;8255;49.560;8.244;2023-02-19T08:37:54;3.65;;;2.63;;
16294;SDS011;8255;49.560;8.244;2023-02-19T08:40:21;3.88;;;3.20;;
16294;SDS011;8255;49.560;8.244;2023-02-19T08:42:47;3.08;;;2.78;;
16294;SDS011;8255;49.560;8.244;2023-02-19T08:45:14;3.10;;;2.80;;
16294;SDS011;8255;49.560;8.244;2023-02-19T08:47:40;3.38;;;2.60;;
16294;SDS011;8255;49.560;8.244;2023-02-19T08:50:06;3.47;;;3.22;;
16294;SDS011;8255;49.560;8.244;2023-02-19T08:52:34;3.10;;;2.70;;
16294;SDS011;8255;49.560;8.244;2023-02-19T08:55:01;3.65;;;2.92;;
16294;SDS011;8255;49.560;8.244;2023-02-19T08:57:27;3.72;;;2.70;;
16294;SDS011;8255;49.560;8.244;2023-02-19T08:59:54;4.38;;;3.50;;
16294;SDS011;8255;49.560;8.244;2023-02-19T09:02:21;3.78;;;3.00;;
16294;SDS011;8255;49.560;8.244;2023-02-19T09:04:47;4.35;;;3.08;;
16294;SDS011;8255;49.560;8.244;2023-02-19T09:07:13;3.45;;;2.90;;
16294;SDS011;8255;49.560;8.244;2023-02-19T09:09:41;4.93;;;3.10;;
16294;SDS011;8255;49.560;8.244;2023-02-19T09:12:08;3.92;;;3.15;;
16294;SDS011;8255;49.560;8.244;2023-02-19T09:14:35;3.50;;;3.25;;
16294;SDS011;8255;49.560;8.244;2023-02-19T09:17:02;3.80;;;3.50;;
16294;SDS011;8255;49.560;8.244;2023-02-19T09:19:29;4.15;;;3.65;;
16294;SDS011;8255;49.560;8.244;2023-02-19T09:21:55;4.65;;;4.20;;
16294;SDS011;8255;49.560;8.244;2023-02-19T09:24:22;3.42;;;3.15;;
16294;SDS011;8255;49.560;8.244;2023-02-19T09:26:50;4.20;;;3.80;;
16294;SDS011;8255;49.560;8.244;2023-02-19T09:29:17;4.75;;;4.38;;
16294;SDS011;8255;49.560;8.244;2023-02-19T09:31:46;4.60;;;2.92;;
16294;SDS011;8255;49.560;8.244;2023-02-19T09:34:12;3.00;;;2.45;;
16294;SDS011;8255;49.560;8.244;2023-02-19T09:36:38;4.20;;;2.75;;
16294;SDS011;8255;49.560;8.244;2023-02-19T09:39:05;2.83;;;2.65;;
16294;SDS011;8255;49.560;8.244;2023-02-19T09:41:32;4.65;;;3.08;;
16294;SDS011;8255;49.560;8.244;2023-02-19T09:44:01;3.00;;;2.80;;
16294;SDS011;8255;49.560;8.244;2023-02-19T09:46:29;2.85;;;2.65;;
16294;SDS011;8255;49.560;8.244;2023-02-19T09:48:57;3.42;;;2.83;;
16294;SDS011;8255;49.560;8.244;2023-02-19T09:51:26;2.65;;;2.45;;
16294;SDS011;8255;49.560;8.244;2023-02-19T09:53:52;3.45;;;2.72;;
16294;SDS011;8255;49.560;8.244;2023-02-19T09:56:19;6.00;;;3.00;;
16294;SDS011;8255;49.560;8.244;2023-02-19T09:58:46;3.35;;;3.05;;
16294;SDS011;8255;49.560;8.244;2023-02-19T10:01:14;3.20;;;2.90;;
16294;SDS011;8255;49.560;8.244;2023-02-19T10:03:42;3.05;;;2.47;;
16294;SDS011;8255;49.560;8.244;2023-02-19T10:06:12;3.50;;;2.70;;
16294;SDS011;8255;49.560;8.244;2023-02-19T10:08:43;4.30;;;2.90;;
16294;SDS011;8255;49.560;8.244;2023-02-19T10:11:10;5.70;;;3.20;;
16294;SDS011;8255;49.560;8.244;2023-02-19T10:13:39;4.47;;;2.67;;
16294;SDS011;8255;49.560;8.244;2023-02-19T10:16:06;2.85;;;2.65;;
16294;SDS011;8255;49.560;8.244;2023-02-19T10:18:37;3.58;;;2.38;;
16294;SDS011;8255;49.560;8.244;2023-02-19T10:21:05;3.78;;;2.67;;
16294;SDS011;8255;49.560;8.244;2023-02-19T10:23:32;3.67;;;2.30;;
16294;SDS011;8255;49.560;8.244;2023-02-19T10:25:58;2.42;;;2.10;;
16294;SDS011;8255;49.560;8.244;2023-02-19T10:28:27;3.50;;;2.22;;
16294;SDS011;8255;49.560;8.244;2023-02-19T10:30:54;2.35;;;2.15;;
16294;SDS011;8255;49.560;8.244;2023-02-19T10:33:21;3.05;;;2.50;;
16294;SDS011;8255;49.560;8.244;2023-02-19T10:35:53;3.03;;;2.10;;
16294;SDS011;8255;49.560;8.244;2023-02-19T10:38:20;3.03;;;2.53;;
16294;SDS011;8255;49.560;8.244;2023-02-19T10:40:47;4.70;;;2.10;;
16294;SDS011;8255;49.560;8.244;2023-02-19T10:43:18;3.95;;;2.00;;
16294;SDS011;8255;49.560;8.244;2023-02-19T10:45:47;2.03;;;1.92;;
16294;SDS011;8255;49.560;8.244;2023-02-19T10:48:20;2.38;;;2.17;;
16294;SDS011;8255;49.560;8.244;2023-02-19T10:50:49;3.45;;;2.00;;
16294;SDS011;8255;49.560;8.244;2023-02-19T10:53:22;3.70;;;1.88;;
16294;SDS011;8255;49.560;8.244;2023-02-19T10:55:55;2.22;;;1.77;;
16294;SDS011;8255;49.560;8.244;2023-02-19T10:58:30;2.22;;;1.90;;
16294;SDS011;8255;49.560;8.244;2023-02-19T11:01:11;3.05;;;2.05;;
16294;SDS011;8255;49.560;8.244;2023-02-19T11:03:39;1.98;;;1.80;;
16294;SDS011;8255;49.560;8.244;2023-02-19T11:06:06;2.75;;;1.60;;
16294;SDS011;8255;49.560;8.244;2023-02-19T11:08:37;1.70;;;1.60;;
16294;SDS011;8255;49.560;8.244;2023-02-19T11:11:10;3.70;;;1.60;;
16294;SDS011;8255;49.560;8.244;2023-02-19T11:13:46;2.92;;;2.00;;
16294;SDS011;8255;49.560;8.244;2023-02-19T11:16:12;2.53;;;1.50;;
16294;SDS011;8255;49.560;8.244;2023-02-19T11:18:39;2.47;;;1.67;;
16294;SDS011;8255;49.560;8.244;2023-02-19T11:21:15;4.30;;;2.17;;
16294;SDS011;8255;49.560;8.244;2023-02-19T11:23:48;2.25;;;1.92;;
16294;SDS011;8255;49.560;8.244;2023-02-19T11:26:16;1.83;;;1.30;;
16294;SDS011;8255;49.560;8.244;2023-02-19T11:28:43;2.17;;;1.60;;
16294;SDS011;8255;49.560;8.244;2023-02-19T11:31:14;1.48;;;1.30;;
16294;SDS011;8255;49.560;8.244;2023-02-19T11:33:44;2.00;;;1.42;;
16294;SDS011;8255;49.560;8.244;2023-02-19T11:36:20;2.55;;;1.58;;
16294;SDS011;8255;49.560;8.244;2023-02-19T11:38:50;2.22;;;1.88;;
16294;SDS011;8255;49.560;8.244;2023-02-19T11:41:17;2.33;;;1.70;;
16294;SDS011;8255;49.560;8.244;2023-02-19T11:43:51;2.78;;;1.67;;
16294;SDS011;8255;49.560;8.244;2023-02-19T11:46:23;3.80;;;1.80;;
16294;SDS011;8255;49.560;8.244;2023-02-19T11:48:54;2.03;;;1.90;;
16294;SDS011;8255;49.560;8.244;2023-02-19T11:51:30;4.68;;;1.98;;
16294;SDS011;8255;49.560;8.244;2023-02-19T11:54:02;3.28;;;1.67;;
16294;SDS011;8255;49.560;8.244;2023-02-19T11:56:34;2.97;;;1.80;;
16294;SDS011;8255;49.560;8.244;2023-02-19T11:59:02;2.17;;;1.60;;
16294;SDS011;8255;49.560;8.244;2023-02-19T12:07:00;2.53;;;1.95;;
16294;SDS011;8255;49.560;8.244;2023-02-19T12:09:44;4.55;;;1.70;;
16294;SDS011;8255;49.560;8.244;2023-02-19T12:12:16;3.30;;;1.65;;
16294;SDS011;8255;49.560;8.244;2023-02-19T12:14:55;2.83;;;1.58;;
16294;SDS011;8255;49.560;8.244;2023-02-19T12:17:32;2.92;;;1.60;;
16294;SDS011;8255;49.560;8.244;2023-02-19T12:20:05;3.15;;;1.55;;
16294;SDS011;8255;49.560;8.244;2023-02-19T12:22:39;2.45;;;1.48;;
16294;SDS011;8255;49.560;8.244;2023-02-19T12:25:25;2.97;;;1.33;;
16294;SDS011;8255;49.560;8.244;2023-02-19T12:28:01;1.80;;;1.65;;
16294;SDS011;8255;49.560;8.244;2023-02-19T12:30:34;1.63;;;1.38;;
16294;SDS011;8255;49.560;8.244;2023-02-19T12:33:20;2.70;;;1.83;;
16294;SDS011;8255;49.560;8.244;2023-02-19T12:35:52;4.03;;;1.80;;
16294;SDS011;8255;49.560;8.244;2023-02-19T12:38:25;2.13;;;1.27;;
16294;SDS011;8255;49.560;8.244;2023-02-19T12:41:05;2.60;;;1.42;;
16294;SDS011;8255;49.560;8.244;2023-02-19T12:43:34;4.47;;;1.60;;
16294;SDS011;8255;49.560;8.244;2023-02-19T12:46:03;1.75;;;1.40;;
16294;SDS011;8255;49.560;8.244;2023-02-19T12:48:34;3.53;;;1.63;;
16294;SDS011;8255;49.560;8.244;2023-02-19T12:54:31;0.95;;;0.95;;
16294;SDS011;8255;49.560;8.244;2023-02-19T12:57:01;3.80;;;1.80;;
16294;SDS011;8255;49.560;8.244;2023-02-19T12:59:28;5.30;;;2.15;;
16294;SDS011;8255;49.560;8.244;2023-02-19T13:01:57;4.05;;;1.67;;
16294;SDS011;8255;49.560;8.244;2023-02-19T13:04:28;3.65;;;1.63;;
16294;SDS011;8255;49.560;8.244;2023-02-19T13:06:56;3.90;;;1.75;;
16294;SDS011;8255;49.560;8.244;2023-02-19T13:09:25;4.50;;;1.48;;
16294;SDS011;8255;49.560;8.244;2023-02-19T13:11:55;1.63;;;1.50;;
16294;SDS011;8255;49.560;8.244;2023-02-19T13:14:25;3.22;;;1.52;;
16294;SDS011;8255;49.560;8.244;2023-02-19T13:16:55;2.72;;;1.58;;
16294;SDS011;8255;49.560;8.244;2023-02-19T13:19:22;2.15;;;1.50;;
16294;SDS011;8255;49.560;8.244;2023-02-19T13:21:50;1.77;;;1.30;;
16294;SDS011;8255;49.560;8.244;2023-02-19T13:24:39;2.13;;;1.60;;
16294;SDS011;8255;49.560;8.244;2023-02-19T13:27:11;2.45;;;1.42;;
16294;SDS011;8255;49.560;8.244;2023-02-19T13:30:11;2.90;;;1.30;;
16294;SDS011;8255;49.560;8.244;2023-02-19T13:32:58;2.78;;;1.27;;
16294;SDS011;8255;49.560;8.244;2023-02-19T13:35:34;1.63;;;1.50;;
16294;SDS011;8255;49.560;8.244;2023-02-19T13:38:07;3.47;;;1.98;;
16294;SDS011;8255;49.560;8.244;2023-02-19T13:40:36;2.28;;;1.70;;
16294;SDS011;8255;49.560;8.244;2023-02-19T13:43:04;3.40;;;1.60;;
16294;SDS011;8255;49.560;8.244;2023-02-19T13:45:33;1.52;;;1.42;;
16294;SDS011;8255;49.560;8.244;2023-02-19T13:48:11;6.75;;;2.20;;
16294;SDS011;8255;49.560;8.244;2023-02-19T13:50:38;1.95;;;1.60;;
16294;SDS011;8255;49.560;8.244;2023-02-19T13:53:06;1.60;;;1.50;;
16294;SDS011;8255;49.560;8.244;2023-02-19T13:55:52;3.08;;;1.40;;
16294;SDS011;8255;49.560;8.244;2023-02-19T14:01:06;2.28;;;2.10;;
16294;SDS011;8255;49.560;8.244;2023-02-19T14:03:39;3.13;;;1.83;;
16294;SDS011;8255;49.560;8.244;2023-02-19T14:06:09;3.22;;;1.80;;
16294;SDS011;8255;49.560;8.244;2023-02-19T14:08:47;2.80;;;1.60;;
16294;SDS011;8255;49.560;8.244;2023-02-19T14:11:14;2.47;;;1.80;;
16294;SDS011;8255;49.560;8.244;2023-02-19T14:13:57;2.97;;;1.60;;
16294;SDS011;8255;49.560;8.244;2023-02-19T14:16:30;2.88;;;1.60;;
16294;SDS011;8255;49.560;8.244;2023-02-19T14:18:59;3.40;;;1.98;;
16294;SDS011;8255;49.560;8.244;2023-02-19T14:21:33;2.35;;;1.80;;
16294;SDS011;8255;49.560;8.244;2023-02-19T14:23:59;2.50;;;1.88;;
16294;SDS011;8255;49.560;8.244;2023-02-19T14:26:26;3.42;;;2.10;;
16294;SDS011;8255;49.560;8.244;2023-02-19T14:28:55;3.95;;;1.98;;
16294;SDS011;8255;49.560;8.244;2023-02-19T14:31:26;5.38;;;1.92;;
16294;SDS011;8255;49.560;8.244;2023-02-19T14:33:54;2.83;;;2.10;;
16294;SDS011;8255;49.560;8.244;2023-02-19T14:36:27;1.92;;;1.83;;
16294;SDS011;8255;49.560;8.244;2023-02-19T14:38:55;2.85;;;1.83;;
16294;SDS011;8255;49.560;8.244;2023-02-19T14:41:22;3.42;;;2.30;;
16294;SDS011;8255;49.560;8.244;2023-02-19T14:43:51;2.22;;;2.00;;
16294;SDS011;8255;49.560;8.244;2023-02-19T14:46:19;2.60;;;1.92;;
16294;SDS011;8255;49.560;8.244;2023-02-19T14:48:48;2.13;;;1.65;;
16294;SDS011;8255;49.560;8.244;2023-02-19T14:51:19;4.45;;;1.80;;
16294;SDS011;8255;49.560;8.244;2023-02-19T14:53:48;1.88;;;1.77;;
16294;SDS011;8255;49.560;8.244;2023-02-19T14:56:17;2.45;;;2.05;;
16294;SDS011;8255;49.560;8.244;2023-02-19T14:58:44;3.33;;;2.10;;
16294;SDS011;8255;49.560;8.244;2023-02-19T15:01:23;3.30;;;1.63;;
16294;SDS011;8255;49.560;8.244;2023-02-19T15:03:52;2.92;;;1.92;;
16294;SDS011;8255;49.560;8.244;2023-02-19T15:06:20;7.65;;;2.55;;
16294;SDS011;8255;49.560;8.244;2023-02-19T15:08:48;4.00;;;2.50;;
16294;SDS011;8255;49.560;8.244;2023-02-19T15:11:18;5.80;;;2.38;;
16294;SDS011;8255;49.560;8.244;2023-02-19T15:13:46;1.90;;;1.65;;
16294;SDS011;8255;49.560;8.244;2023-02-19T15:16:15;3.97;;;1.60;;
16294;SDS011;8255;49.560;8.244;2023-02-19T15:18:43;2.90;;;1.80;;
16294;SDS011;8255;49.560;8.244;2023-02-19T15:21:11;4.28;;;2.10;;
16294;SDS011;8255;49.560;8.244;2023-02-19T15:23:44;2.88;;;1.65;;
16294;SDS011;8255;49.560;8.244;2023-02-19T15:26:15;3.60;;;1.75;;
16294;SDS011;8255;49.560;8.244;2023-02-19T15:28:43;3.33;;;1.80;;
16294;SDS011;8255;49.560;8.244;2023-02-19T15:31:12;2.88;;;1.60;;